Time;durP1;ratioP1;P1;durP2;ratioP2;P2;SDS_P1;SDS_P2;PMS_P1;PMS_P2;Temp;Humidity;BMP_temperature;BMP_pressure;BME280_temperature;BME280_humidity;BME280_pressure;Samples;Min_cycle;Max_cycle;Signal;HPM_P1;HPM_P2
2022/02/12 00:00:08;;;;;;;11.50;6.20;;;3.50;99.90;;;;;;5087923;28;20484;-39
2022/02/12 00:02:33;;;;;;;9.63;5.80;;;3.20;99.90;;;;;;5087345;28;20180;-38
2022/02/12 00:04:59;;;;;;;8.90;5.40;;;3.10;99.90;;;;;;5088006;28;20490;-39
2022/02/12 00:07:25;;;;;;;11.80;4.70;;;2.90;99.90;;;;;;5087898;28;20192;-38
2022/02/12 00:09:50;;;;;;;8.47;4.80;;;3.20;99.90;;;;;;5087254;28;20283;-38
2022/02/12 00:12:16;;;;;;;10.77;5.40;;;3.10;99.90;;;;;;5081053;28;20611;-38
2022/02/12 00:14:42;;;;;;;10.73;4.73;;;3.40;99.90;;;;;;5087990;28;20207;-41
2022/02/12 00:17:09;;;;;;;11.07;4.97;;;3.20;99.90;;;;;;5088106;28;20211;-39
2022/02/12 00:19:35;;;;;;;9.50;4.90;;;3.20;99.90;;;;;;5086522;28;20427;-38
2022/02/12 00:22:00;;;;;;;6.67;4.17;;;3.00;99.90;;;;;;5088214;28;20758;-38
2022/02/12 00:24:26;;;;;;;9.70;4.63;;;2.90;99.90;;;;;;5086921;28;20441;-39
2022/02/12 00:26:52;;;;;;;8.27;4.50;;;3.20;99.90;;;;;;5081761;28;20636;-38
2022/02/12 00:29:17;;;;;;;9.50;4.67;;;3.10;99.90;;;;;;5084487;28;20531;-39
2022/02/12 00:31:43;;;;;;;11.17;4.40;;;3.20;99.90;;;;;;5087241;28;20552;-41
2022/02/12 00:34:09;;;;;;;6.37;4.00;;;3.10;99.90;;;;;;5088111;28;20192;-38
2022/02/12 00:36:34;;;;;;;5.30;3.73;;;3.30;99.90;;;;;;5085957;28;20341;-38
2022/02/12 00:39:00;;;;;;;6.50;4.50;;;3.20;99.90;;;;;;5088078;28;20196;-38
2022/02/12 00:41:25;;;;;;;5.00;4.27;;;3.00;99.90;;;;;;5084656;28;20193;-38
2022/02/12 00:43:51;;;;;;;10.23;4.13;;;3.20;99.90;;;;;;5080976;28;20230;-38
2022/02/12 00:46:17;;;;;;;9.30;4.17;;;3.00;99.90;;;;;;5087414;28;20887;-39
2022/02/12 00:48:42;;;;;;;6.23;4.20;;;3.10;99.90;;;;;;5087862;28;20713;-38
2022/02/12 00:51:08;;;;;;;4.57;3.60;;;2.90;99.90;;;;;;5087122;28;20222;-39
2022/02/12 00:53:34;;;;;;;8.10;3.87;;;2.90;99.90;;;;;;5076531;28;20195;-40
2022/02/12 00:55:59;;;;;;;6.50;4.20;;;2.60;99.90;;;;;;5083540;28;20235;-40
2022/02/12 00:58:25;;;;;;;7.77;3.93;;;2.70;99.90;;;;;;5078511;28;20193;-39
2022/02/12 01:00:51;;;;;;;5.67;3.50;;;2.50;99.90;;;;;;5086770;28;20188;-38
2022/02/12 01:03:16;;;;;;;11.97;4.00;;;2.10;99.90;;;;;;5087214;28;20476;-39
2022/02/12 01:05:42;;;;;;;6.60;4.10;;;2.40;99.90;;;;;;5087576;28;20583;-40
2022/02/12 01:08:08;;;;;;;7.10;3.90;;;2.50;99.90;;;;;;5087246;28;20496;-41
2022/02/12 01:10:35;;;;;;;5.63;3.50;;;2.50;99.90;;;;;;5087024;28;20406;-41
2022/02/12 01:13:01;;;;;;;5.30;3.30;;;2.60;99.90;;;;;;5079721;28;20192;-39
2022/02/12 01:15:27;;;;;;;9.40;4.03;;;2.50;99.90;;;;;;5086993;28;20875;-38
2022/02/12 01:17:53;;;;;;;7.60;4.20;;;2.60;99.90;;;;;;5086771;28;20466;-38
2022/02/12 01:20:19;;;;;;;6.70;4.10;;;2.70;99.90;;;;;;5086465;28;20426;-39
2022/02/12 01:22:47;;;;;;;8.20;4.23;;;2.50;99.90;;;;;;5086932;28;20966;-39
2022/02/12 01:25:13;;;;;;;4.30;3.33;;;2.40;99.90;;;;;;5085980;28;20634;-38
2022/02/12 01:27:39;;;;;;;4.73;3.43;;;2.40;99.90;;;;;;5074178;28;20438;-41
2022/02/12 01:30:06;;;;;;;6.87;3.50;;;2.20;99.90;;;;;;5082671;28;20425;-38
2022/02/12 01:32:32;;;;;;;4.60;3.10;;;2.00;99.90;;;;;;5087163;28;20624;-39
2022/02/12 01:34:57;;;;;;;8.23;4.10;;;2.00;99.90;;;;;;5085283;28;20775;-39
2022/02/12 01:37:23;;;;;;;6.20;3.03;;;2.20;99.90;;;;;;5087096;28;20303;-38
2022/02/12 01:39:50;;;;;;;7.00;3.50;;;2.50;99.90;;;;;;5086188;28;20188;-40
2022/02/12 01:42:16;;;;;;;5.77;3.20;;;2.30;99.90;;;;;;5078835;28;20572;-38
2022/02/12 01:44:42;;;;;;;9.17;3.50;;;2.50;99.90;;;;;;5083347;28;20418;-38
2022/02/12 01:47:09;;;;;;;8.30;3.80;;;2.60;99.90;;;;;;5087041;28;20422;-39
2022/02/12 01:49:36;;;;;;;7.03;3.47;;;3.10;99.90;;;;;;5086685;28;20430;-39
2022/02/12 01:52:08;;;;;;;8.03;3.60;;;3.00;99.90;;;;;;5086643;28;20429;-41
2022/02/12 01:54:34;;;;;;;6.50;2.90;;;3.20;99.90;;;;;;5087115;28;20808;-40
2022/02/12 01:57:01;;;;;;;7.13;3.80;;;3.10;99.90;;;;;;5081069;28;20494;-39
2022/02/12 01:59:27;;;;;;;6.57;3.37;;;3.10;99.90;;;;;;5077790;28;20450;-38
2022/02/12 02:01:53;;;;;;;4.70;3.00;;;3.10;99.90;;;;;;5086290;28;20581;-38
2022/02/12 02:04:20;;;;;;;5.97;3.20;;;3.20;99.90;;;;;;5086933;28;20471;-39
2022/02/12 02:06:49;;;;;;;8.80;3.80;;;3.10;99.90;;;;;;5086993;28;20462;-39
2022/02/12 02:09:19;;;;;;;6.50;3.20;;;2.90;99.90;;;;;;5086918;28;20707;-40
2022/02/12 02:11:46;;;;;;;7.30;3.07;;;2.60;99.90;;;;;;5082637;28;20988;-39
2022/02/12 02:14:12;;;;;;;15.00;4.40;;;2.80;99.90;;;;;;5078676;28;20944;-41
2022/02/12 02:16:40;;;;;;;9.10;3.60;;;2.80;99.90;;;;;;5086429;28;20517;-40
2022/02/12 02:19:06;;;;;;;7.47;3.50;;;2.60;99.90;;;;;;5073036;28;20427;-40
2022/02/12 02:21:35;;;;;;;6.70;3.23;;;2.40;99.90;;;;;;5085998;28;20426;-38
2022/02/12 02:24:00;;;;;;;11.73;3.83;;;2.20;99.90;;;;;;5073237;28;20410;-38
2022/02/12 02:26:26;;;;;;;8.33;3.67;;;2.40;99.90;;;;;;5086107;28;20464;-39
2022/02/12 02:28:52;;;;;;;5.33;3.10;;;2.60;99.90;;;;;;5077152;28;20670;-38
2022/02/12 02:31:17;;;;;;;8.93;3.57;;;2.60;99.90;;;;;;5087045;28;20196;-39
2022/02/12 02:33:43;;;;;;;5.07;2.90;;;2.80;99.90;;;;;;5090297;28;20187;-39
2022/02/12 02:36:10;;;;;;;5.87;2.83;;;2.80;99.90;;;;;;5088374;28;20665;-39
2022/02/12 02:38:36;;;;;;;6.43;3.33;;;2.80;99.90;;;;;;5076966;28;20181;-38
2022/02/12 02:41:02;;;;;;;10.67;3.90;;;2.80;99.90;;;;;;5089113;28;20425;-39
2022/02/12 02:43:28;;;;;;;7.17;3.93;;;2.80;99.90;;;;;;5079504;28;20820;-42
2022/02/12 02:45:54;;;;;;;7.20;3.10;;;2.60;99.90;;;;;;5089882;28;20192;-38
2022/02/12 02:48:20;;;;;;;7.00;3.00;;;2.60;99.90;;;;;;5090276;28;20530;-41
2022/02/12 02:56:15;;;;;;;10.00;3.50;;;2.60;99.90;;;;;;5090004;28;20875;-40
2022/02/12 02:58:47;;;;;;;5.37;3.30;;;2.60;99.90;;;;;;5079358;28;20441;-38
2022/02/12 03:01:19;;;;;;;5.73;3.77;;;2.40;99.90;;;;;;5087649;28;20245;-39
2022/02/12 03:03:47;;;;;;;7.70;3.80;;;2.20;99.90;;;;;;5089413;28;20427;-40
2022/02/12 03:06:14;;;;;;;8.53;4.40;;;2.10;99.90;;;;;;5089721;28;20919;-40
2022/02/12 03:08:41;;;;;;;6.67;3.77;;;2.10;99.90;;;;;;5089556;28;20453;-40
2022/02/12 03:11:08;;;;;;;6.60;3.43;;;1.70;99.90;;;;;;5089517;28;20448;-39
2022/02/12 03:13:34;;;;;;;6.87;2.83;;;1.50;99.90;;;;;;5077102;28;20443;-38
2022/02/12 03:16:01;;;;;;;8.20;3.63;;;1.70;99.90;;;;;;5089569;28;20879;-38
2022/02/12 03:18:27;;;;;;;6.87;3.30;;;1.80;99.90;;;;;;5089250;28;20422;-41
2022/02/12 03:20:53;;;;;;;7.63;3.50;;;1.70;99.90;;;;;;5089202;28;20487;-39
2022/02/12 03:23:19;;;;;;;7.60;3.60;;;2.10;99.90;;;;;;5089314;28;20441;-38
2022/02/12 03:25:44;;;;;;;4.20;2.77;;;1.90;99.90;;;;;;5089563;28;20422;-41
2022/02/12 03:28:11;;;;;;;5.63;3.60;;;1.60;99.90;;;;;;5080286;28;20270;-39
2022/02/12 03:30:42;;;;;;;5.53;3.40;;;1.60;99.90;;;;;;5088177;28;20176;-39
2022/02/12 03:33:09;;;;;;;12.43;4.27;;;1.80;99.90;;;;;;5088909;28;20797;-40
2022/02/12 03:35:35;;;;;;;7.03;3.90;;;1.50;99.90;;;;;;5087676;28;20422;-38
2022/02/12 03:38:07;;;;;;;10.03;4.37;;;1.70;99.90;;;;;;5089104;28;20477;-39
2022/02/12 03:40:38;;;;;;;6.13;4.40;;;1.40;99.90;;;;;;5088324;28;20830;-38
2022/02/12 03:43:04;;;;;;;8.97;3.73;;;1.50;99.90;;;;;;5083109;28;20518;-40
2022/02/12 03:45:30;;;;;;;6.30;3.80;;;1.50;99.90;;;;;;5088073;28;20411;-38
2022/02/12 03:47:56;;;;;;;8.03;4.10;;;1.70;99.90;;;;;;5088690;28;20433;-39
2022/02/12 03:50:22;;;;;;;5.07;3.80;;;1.60;99.90;;;;;;5088184;28;20651;-39
2022/02/12 03:52:49;;;;;;;8.63;4.10;;;1.70;99.90;;;;;;5088867;28;20474;-40
2022/02/12 03:55:16;;;;;;;5.57;3.23;;;1.50;99.90;;;;;;5088872;28;20204;-40
2022/02/12 03:57:42;;;;;;;5.00;3.43;;;1.80;99.90;;;;;;5083800;28;20470;-38
2022/02/12 04:00:12;;;;;;;10.87;3.27;;;1.70;99.90;;;;;;5078094;28;20419;-38
2022/02/12 04:02:39;;;;;;;6.13;3.80;;;1.70;99.90;;;;;;5088131;28;20567;-41
2022/02/12 04:05:05;;;;;;;7.67;3.60;;;2.00;99.90;;;;;;5088809;28;20452;-38
2022/02/12 04:07:31;;;;;;;9.20;3.60;;;2.00;99.90;;;;;;5087261;28;20426;-38
2022/02/12 04:09:56;;;;;;;9.27;4.37;;;2.00;99.90;;;;;;5088009;28;20437;-38
2022/02/12 04:12:22;;;;;;;6.90;4.13;;;2.00;99.90;;;;;;5088245;28;20250;-39
2022/02/12 04:14:48;;;;;;;7.27;4.10;;;2.00;99.90;;;;;;5080137;28;20203;-42
2022/02/12 04:17:15;;;;;;;4.90;3.47;;;1.80;99.90;;;;;;5088153;28;20542;-38
2022/02/12 04:19:40;;;;;;;6.40;3.13;;;1.70;99.90;;;;;;5087844;28;20475;-42
2022/02/12 04:22:06;;;;;;;8.17;4.70;;;1.70;99.90;;;;;;5087896;28;20446;-40
2022/02/12 04:24:32;;;;;;;8.37;4.07;;;1.90;99.90;;;;;;5088306;28;20176;-41
2022/02/12 04:26:57;;;;;;;8.93;4.20;;;2.30;99.90;;;;;;5088234;28;20280;-40
2022/02/12 04:29:23;;;;;;;6.97;3.50;;;2.10;99.90;;;;;;5076118;28;20200;-39
2022/02/12 04:31:48;;;;;;;4.23;3.37;;;2.20;99.90;;;;;;5087171;28;20192;-38
2022/02/12 04:34:14;;;;;;;6.83;3.80;;;2.10;99.90;;;;;;5086811;28;20406;-40
2022/02/12 04:36:40;;;;;;;6.30;3.40;;;2.10;99.90;;;;;;5086319;28;20211;-38
2022/02/12 04:39:06;;;;;;;6.90;3.50;;;2.60;99.90;;;;;;5088078;28;20218;-39
2022/02/12 04:41:31;;;;;;;9.30;5.70;;;2.20;99.90;;;;;;5087366;28;20522;-38
2022/02/12 04:43:57;;;;;;;6.03;3.17;;;2.30;99.90;;;;;;5078151;28;20254;-38
2022/02/12 04:46:23;;;;;;;8.43;3.87;;;2.00;99.90;;;;;;5084811;28;20442;-39
2022/02/12 04:48:49;;;;;;;7.40;3.90;;;1.70;99.90;;;;;;5087641;28;20207;-39
2022/02/12 04:51:18;;;;;;;9.43;3.80;;;1.80;99.90;;;;;;5087218;28;20238;-39
2022/02/12 04:53:44;;;;;;;7.03;3.40;;;1.70;99.90;;;;;;5087114;28;20419;-38
2022/02/12 04:56:10;;;;;;;5.93;3.33;;;1.70;99.90;;;;;;5087499;28;20834;-38
2022/02/12 04:58:36;;;;;;;8.97;3.80;;;1.60;99.90;;;;;;5081221;28;20470;-39
2022/02/12 05:01:02;;;;;;;10.40;4.07;;;1.60;99.90;;;;;;5085322;28;20484;-39
2022/02/12 05:03:27;;;;;;;7.17;3.27;;;1.90;99.90;;;;;;5087287;28;20189;-38
2022/02/12 05:05:53;;;;;;;6.93;3.50;;;1.80;99.90;;;;;;5087793;28;20454;-39
2022/02/12 05:08:19;;;;;;;8.33;3.47;;;2.00;99.90;;;;;;5087354;28;20264;-40
2022/02/12 05:10:44;;;;;;;5.40;3.20;;;1.90;99.90;;;;;;5086894;28;20196;-39
2022/02/12 05:13:10;;;;;;;5.57;3.67;;;1.70;99.90;;;;;;5083753;28;20545;-39
2022/02/12 05:15:36;;;;;;;8.60;3.43;;;1.40;99.90;;;;;;5082059;28;20189;-39
2022/02/12 05:18:01;;;;;;;4.03;3.27;;;1.40;99.90;;;;;;5087194;28;20220;-39
2022/02/12 05:20:27;;;;;;;6.53;3.63;;;1.10;99.90;;;;;;5086572;28;20512;-38
2022/02/12 05:22:53;;;;;;;7.83;3.00;;;1.10;99.90;;;;;;5087355;28;20188;-40
2022/02/12 05:25:18;;;;;;;8.00;4.03;;;1.30;99.90;;;;;;5087128;28;20195;-42
2022/02/12 05:27:44;;;;;;;7.00;3.23;;;1.40;99.90;;;;;;5087408;28;20192;-38
2022/02/12 05:30:10;;;;;;;7.53;3.80;;;1.30;99.90;;;;;;5074886;28;20206;-40
2022/02/12 05:32:36;;;;;;;6.63;3.63;;;1.20;99.90;;;;;;5087228;28;20196;-39
2022/02/12 05:35:02;;;;;;;6.63;3.83;;;1.40;99.90;;;;;;5085499;28;20803;-39
2022/02/12 05:37:28;;;;;;;4.47;3.03;;;1.60;99.90;;;;;;5086985;28;20216;-38
2022/02/12 05:39:53;;;;;;;5.40;3.30;;;1.80;99.90;;;;;;5086256;28;20423;-42
2022/02/12 05:42:19;;;;;;;5.80;2.80;;;1.70;99.90;;;;;;5087050;28;20621;-39
2022/02/12 05:44:44;;;;;;;5.90;2.67;;;1.60;99.90;;;;;;5077533;28;20198;-39
2022/02/12 05:47:10;;;;;;;6.30;4.70;;;1.50;99.90;;;;;;5086624;28;20191;-39
2022/02/12 05:49:36;;;;;;;5.63;3.30;;;1.30;99.90;;;;;;5078724;28;20196;-39
2022/02/12 05:52:02;;;;;;;7.97;3.80;;;1.30;99.90;;;;;;5086535;28;20191;-40
2022/02/12 05:54:28;;;;;;;7.90;3.33;;;1.50;99.90;;;;;;5085745;28;20580;-38
2022/02/12 05:56:53;;;;;;;4.90;3.57;;;1.30;99.90;;;;;;5086318;28;20466;-39
2022/02/12 05:59:19;;;;;;;5.17;3.10;;;1.60;99.90;;;;;;5076609;28;20192;-38
2022/02/12 06:01:45;;;;;;;10.30;3.50;;;1.60;99.90;;;;;;5086140;28;20196;-41
2022/02/12 06:04:10;;;;;;;8.07;3.37;;;1.50;99.90;;;;;;5086510;28;20192;-40
2022/02/12 06:06:36;;;;;;;7.03;3.67;;;1.40;99.90;;;;;;5088710;28;20280;-39
2022/02/12 06:09:02;;;;;;;6.37;3.23;;;1.40;99.90;;;;;;5090973;28;20469;-40
2022/02/12 06:11:28;;;;;;;7.40;4.27;;;1.70;99.90;;;;;;5089974;28;20184;-39
2022/02/12 06:13:53;;;;;;;6.30;3.00;;;1.60;99.90;;;;;;5085568;28;20817;-41
2022/02/12 06:16:20;;;;;;;6.10;3.10;;;1.60;99.90;;;;;;5088010;28;20216;-39
2022/02/12 06:18:46;;;;;;;7.57;3.30;;;1.60;99.90;;;;;;5090140;28;20215;-42
2022/02/12 06:21:12;;;;;;;9.53;3.50;;;1.30;99.90;;;;;;5090315;28;20417;-39
2022/02/12 06:23:38;;;;;;;7.20;3.10;;;1.40;99.90;;;;;;5089002;28;20192;-39
2022/02/12 06:26:04;;;;;;;5.00;3.30;;;1.50;99.90;;;;;;5090491;28;20525;-39
2022/02/12 06:28:31;;;;;;;4.47;2.93;;;1.70;99.90;;;;;;5085305;28;20177;-42
2022/02/12 06:30:56;;;;;;;10.27;3.83;;;1.60;99.90;;;;;;5079267;28;20479;-39
2022/02/12 06:33:22;;;;;;;9.17;4.47;;;1.70;99.90;;;;;;5090061;28;20434;-38
2022/02/12 06:35:47;;;;;;;5.70;3.60;;;1.60;99.90;;;;;;5088958;28;20710;-43
2022/02/12 06:38:13;;;;;;;9.50;3.47;;;1.70;99.90;;;;;;5089988;28;20196;-38
2022/02/12 06:40:39;;;;;;;4.70;3.20;;;1.60;99.90;;;;;;5089365;28;20650;-39
2022/02/12 06:43:05;;;;;;;5.43;3.13;;;1.60;99.90;;;;;;5090355;28;20207;-39
2022/02/12 06:45:33;;;;;;;7.93;4.00;;;1.60;99.90;;;;;;5081474;28;20477;-39
2022/02/12 06:47:59;;;;;;;8.17;4.30;;;1.90;99.90;;;;;;5089987;28;20184;-41
2022/02/12 06:50:25;;;;;;;7.63;3.60;;;1.80;99.90;;;;;;5089503;28;20418;-38
2022/02/12 06:52:51;;;;;;;4.70;3.40;;;1.80;99.90;;;;;;5086436;28;20181;-40
2022/02/12 06:55:16;;;;;;;8.97;3.80;;;1.90;99.90;;;;;;5079882;28;20569;-39
2022/02/12 06:57:43;;;;;;;7.13;3.37;;;1.90;99.90;;;;;;5089722;28;20277;-39
2022/02/12 07:00:11;;;;;;;12.90;3.93;;;1.80;99.90;;;;;;5077147;28;20447;-38
2022/02/12 07:02:37;;;;;;;9.60;3.40;;;1.90;99.90;;;;;;5088799;28;20188;-39
2022/02/12 07:05:04;;;;;;;9.07;3.43;;;1.80;99.90;;;;;;5089619;28;20487;-39
2022/02/12 07:07:31;;;;;;;7.30;2.70;;;2.10;99.90;;;;;;5089727;28;20516;-40
2022/02/12 07:09:57;;;;;;;7.60;3.23;;;1.90;99.90;;;;;;5088413;28;20430;-39
2022/02/12 07:12:22;;;;;;;8.23;3.60;;;2.00;99.90;;;;;;5085755;28;20519;-39
2022/02/12 07:14:48;;;;;;;9.93;3.70;;;2.10;99.90;;;;;;5081200;28;20612;-44
2022/02/12 07:17:14;;;;;;;5.23;3.00;;;2.10;99.90;;;;;;5086229;28;20212;-40
2022/02/12 07:19:40;;;;;;;6.53;3.40;;;2.10;99.90;;;;;;5088725;28;20199;-38
2022/02/12 07:22:05;;;;;;;11.33;3.97;;;2.20;99.90;;;;;;5089136;28;20419;-39
2022/02/12 07:24:32;;;;;;;5.93;3.10;;;2.10;99.90;;;;;;5089239;28;20283;-39
2022/02/12 07:26:57;;;;;;;8.67;4.03;;;2.50;99.90;;;;;;5089084;28;20642;-39
2022/02/12 07:29:23;;;;;;;5.83;3.97;;;2.40;99.90;;;;;;5083459;28;20442;-38
2022/02/12 07:31:48;;;;;;;6.03;3.07;;;2.50;99.90;;;;;;5078710;28;20208;-38
2022/02/12 07:34:16;;;;;;;10.13;3.47;;;2.30;99.90;;;;;;5087010;28;20215;-40
2022/02/12 07:36:42;;;;;;;7.93;3.13;;;2.20;99.90;;;;;;5088764;28;20793;-38
2022/02/12 07:39:07;;;;;;;8.37;3.37;;;2.40;99.90;;;;;;5087505;28;20714;-38
2022/02/12 07:41:35;;;;;;;4.70;3.30;;;2.40;99.90;;;;;;5085704;28;20194;-39
2022/02/12 07:44:04;;;;;;;4.10;3.17;;;2.60;99.90;;;;;;5085017;28;20419;-38
2022/02/12 07:46:29;;;;;;;8.73;3.67;;;2.80;99.90;;;;;;5083586;28;20853;-38
2022/02/12 07:48:55;;;;;;;4.63;4.13;;;2.80;99.90;;;;;;5087049;28;20430;-38
2022/02/12 07:51:20;;;;;;;8.50;3.13;;;2.90;99.90;;;;;;5086552;28;20184;-38
2022/02/12 07:53:46;;;;;;;4.43;2.90;;;2.90;99.90;;;;;;5087930;28;20280;-39
2022/02/12 07:56:12;;;;;;;9.40;3.07;;;3.20;99.90;;;;;;5087857;28;20216;-38
2022/02/12 07:58:38;;;;;;;11.47;2.77;;;3.10;99.90;;;;;;5088979;28;20483;-38
2022/02/12 08:01:04;;;;;;;7.90;3.03;;;3.30;99.90;;;;;;5076620;28;20184;-39
2022/02/12 08:03:29;;;;;;;6.00;3.53;;;3.20;99.90;;;;;;5089109;28;20422;-38
2022/02/12 08:05:55;;;;;;;6.23;3.87;;;3.40;99.90;;;;;;5087385;28;20853;-43
2022/02/12 08:08:21;;;;;;;5.77;2.70;;;3.40;99.90;;;;;;5087096;28;20191;-38
2022/02/12 08:13:31;;;;;;;8.60;3.70;;;3.80;99.90;;;;;;5088529;28;20176;-38
2022/02/12 08:15:56;;;;;;;12.13;2.80;;;3.70;99.90;;;;;;5083355;28;20445;-39
2022/02/12 08:18:22;;;;;;;8.80;3.17;;;3.90;99.90;;;;;;5086356;28;20406;-38
2022/02/12 08:20:47;;;;;;;6.33;3.47;;;4.20;99.90;;;;;;5074363;28;20303;-38
2022/02/12 08:23:14;;;;;;;8.50;3.27;;;4.20;99.90;;;;;;5088374;28;20187;-38
2022/02/12 08:25:39;;;;;;;12.80;4.33;;;4.20;99.90;;;;;;5073959;28;20271;-39
2022/02/12 08:28:05;;;;;;;7.83;3.10;;;4.40;99.90;;;;;;5088105;28;20537;-38
2022/02/12 08:30:31;;;;;;;11.37;2.87;;;4.20;99.90;;;;;;5081479;28;20185;-41
2022/02/12 08:32:56;;;;;;;7.00;2.67;;;4.20;99.90;;;;;;5088174;28;20184;-38
2022/02/12 08:35:22;;;;;;;8.03;3.10;;;4.50;99.90;;;;;;5086787;28;20184;-38
2022/02/12 08:37:48;;;;;;;8.23;3.60;;;4.40;99.90;;;;;;5088146;28;20220;-38
2022/02/12 08:40:18;;;;;;;11.83;4.47;;;4.50;99.90;;;;;;5087591;28;20177;-38
2022/02/12 08:42:45;;;;;;;8.37;3.83;;;4.70;99.90;;;;;;5086559;28;20234;-39
2022/02/12 08:45:11;;;;;;;6.40;3.60;;;4.80;99.90;;;;;;5080143;28;20442;-38
2022/02/12 08:47:37;;;;;;;13.17;4.17;;;4.90;99.90;;;;;;5081184;28;20426;-39
2022/02/12 08:50:04;;;;;;;4.63;3.10;;;5.10;99.90;;;;;;5087574;28;20491;-39
2022/02/12 08:52:30;;;;;;;9.93;3.27;;;5.10;99.90;;;;;;5087983;28;20188;-38
2022/02/12 08:54:56;;;;;;;10.73;3.40;;;5.10;99.90;;;;;;5087751;28;20463;-39
2022/02/12 08:57:21;;;;;;;12.40;4.07;;;5.30;99.90;;;;;;5088351;28;20605;-39
2022/02/12 08:59:47;;;;;;;6.47;2.80;;;5.70;99.90;;;;;;5083217;28;20263;-38
2022/02/12 09:02:13;;;;;;;5.83;3.43;;;5.80;99.90;;;;;;5082165;28;20476;-38
2022/02/12 09:04:40;;;;;;;14.33;3.80;;;5.90;99.90;;;;;;5087382;28;20191;-38
2022/02/12 09:07:06;;;;;;;7.47;3.17;;;6.00;99.90;;;;;;5087939;28;20498;-39
2022/02/12 09:09:32;;;;;;;8.67;3.00;;;5.80;99.90;;;;;;5087422;28;21125;-39
2022/02/12 09:11:57;;;;;;;9.30;3.90;;;6.10;99.90;;;;;;5087296;28;20204;-39
2022/02/12 09:14:24;;;;;;;7.13;3.10;;;6.20;99.90;;;;;;5087536;28;20802;-39
2022/02/12 09:16:50;;;;;;;8.63;3.13;;;6.10;99.90;;;;;;5073077;28;20269;-39
2022/02/12 09:19:15;;;;;;;8.03;3.17;;;6.10;99.90;;;;;;5087361;28;20952;-38
2022/02/12 09:21:41;;;;;;;7.03;3.23;;;6.30;99.90;;;;;;5086482;28;20226;-39
2022/02/12 09:24:08;;;;;;;8.50;3.17;;;6.60;99.70;;;;;;5087362;28;20592;-39
2022/02/12 09:26:33;;;;;;;5.90;3.00;;;6.50;99.00;;;;;;5087159;28;20418;-39
2022/02/12 09:29:01;;;;;;;11.23;3.07;;;6.60;99.00;;;;;;5087389;28;20525;-39
2022/02/12 09:31:27;;;;;;;7.53;3.60;;;6.70;98.70;;;;;;5073447;28;20493;-38
2022/02/12 09:33:53;;;;;;;6.27;4.07;;;6.80;99.00;;;;;;5087107;28;20462;-39
2022/02/12 09:36:18;;;;;;;7.50;3.00;;;6.80;98.60;;;;;;5086150;28;20246;-39
2022/02/12 09:38:44;;;;;;;5.13;2.57;;;6.80;98.80;;;;;;5087121;28;20434;-39
2022/02/12 09:41:13;;;;;;;6.97;2.83;;;7.20;98.50;;;;;;5086318;28;20532;-39
2022/02/12 09:43:41;;;;;;;5.57;2.90;;;7.00;97.90;;;;;;5085446;28;20199;-38
2022/02/12 09:46:09;;;;;;;6.20;3.07;;;7.20;97.90;;;;;;5079533;28;20480;-38
2022/02/12 09:48:35;;;;;;;5.10;2.70;;;6.90;97.10;;;;;;5086752;28;20414;-39
2022/02/12 09:51:03;;;;;;;5.83;2.80;;;7.10;97.40;;;;;;5085304;28;20437;-39
2022/02/12 09:53:30;;;;;;;6.97;3.43;;;7.20;97.50;;;;;;5087004;28;20291;-39
2022/02/12 09:55:56;;;;;;;6.27;2.43;;;7.00;96.70;;;;;;5086998;28;20450;-39
2022/02/12 09:58:22;;;;;;;14.13;2.90;;;7.20;97.50;;;;;;5086826;28;20426;-39
2022/02/12 10:00:48;;;;;;;3.90;2.37;;;7.30;97.20;;;;;;5081090;28;20442;-38
2022/02/12 10:03:14;;;;;;;5.97;3.00;;;7.50;96.90;;;;;;5082982;28;20191;-39
2022/02/12 10:05:50;;;;;;;10.73;3.20;;;7.50;97.10;;;;;;5087054;28;20298;-40
2022/02/12 10:08:17;;;;;;;6.00;3.03;;;7.50;96.10;;;;;;5085882;28;20495;-39
2022/02/12 10:10:45;;;;;;;5.77;2.87;;;7.50;96.10;;;;;;5086466;28;20430;-39
2022/02/12 10:13:21;;;;;;;6.40;2.50;;;7.50;96.40;;;;;;5086665;28;20875;-39
2022/02/12 10:15:54;;;;;;;5.20;2.37;;;7.30;96.20;;;;;;5079121;28;20770;-39
2022/02/12 10:18:21;;;;;;;4.90;2.20;;;7.60;96.30;;;;;;5084313;28;20493;-39
2022/02/12 10:20:48;;;;;;;9.80;2.43;;;7.60;95.80;;;;;;5086483;28;20472;-39
2022/02/12 10:23:16;;;;;;;6.40;2.80;;;7.50;95.30;;;;;;5087074;28;20758;-40
2022/02/12 10:25:45;;;;;;;4.17;2.80;;;7.50;95.60;;;;;;5086708;28;20411;-39
2022/02/12 10:28:12;;;;;;;8.80;4.13;;;7.50;95.90;;;;;;5087063;28;20529;-39
2022/02/12 10:30:39;;;;;;;9.63;2.80;;;7.50;95.30;;;;;;5080819;28;20425;-39
2022/02/12 10:33:07;;;;;;;6.50;2.77;;;7.80;95.00;;;;;;5081510;28;20501;-39
2022/02/12 10:35:34;;;;;;;4.73;2.80;;;7.80;94.80;;;;;;5085640;28;20841;-40
2022/02/12 10:38:10;;;;;;;4.70;2.10;;;7.60;95.00;;;;;;5086690;28;20464;-40
2022/02/12 10:40:38;;;;;;;6.23;2.53;;;7.90;94.60;;;;;;5086400;28;20489;-39
2022/02/12 10:43:04;;;;;;;4.30;2.73;;;8.10;94.50;;;;;;5087199;28;20427;-41
2022/02/12 10:45:31;;;;;;;3.57;2.20;;;8.20;94.00;;;;;;5082612;28;20783;-42
2022/02/12 10:47:58;;;;;;;6.60;2.50;;;8.20;94.00;;;;;;5082186;28;20838;-39
2022/02/12 10:50:27;;;;;;;7.40;2.77;;;8.20;93.10;;;;;;5085832;28;20484;-39
2022/02/12 10:53:02;;;;;;;5.17;1.90;;;8.00;92.40;;;;;;5088914;28;20441;-39
2022/02/12 10:55:30;;;;;;;3.80;2.27;;;8.20;93.00;;;;;;5090573;28;20448;-40
2022/02/12 10:57:59;;;;;;;7.40;2.70;;;8.10;92.50;;;;;;5090218;28;20564;-40
2022/02/12 11:00:26;;;;;;;6.07;2.57;;;8.10;92.70;;;;;;5087355;28;20418;-39
2022/02/12 11:02:54;;;;;;;3.57;2.33;;;8.00;91.40;;;;;;5083523;28;20503;-39
2022/02/12 11:05:22;;;;;;;5.50;2.00;;;8.10;90.90;;;;;;5090186;28;20423;-39
2022/02/12 11:07:50;;;;;;;8.10;2.60;;;8.30;91.90;;;;;;5090083;28;20422;-39
2022/02/12 11:10:17;;;;;;;7.63;3.13;;;8.10;92.50;;;;;;5089643;28;20426;-40
2022/02/12 11:12:43;;;;;;;7.40;2.20;;;8.30;92.40;;;;;;5089889;28;20429;-39
2022/02/12 11:15:10;;;;;;;5.97;2.07;;;8.20;91.30;;;;;;5089929;28;20418;-39
2022/02/12 11:17:37;;;;;;;4.27;2.40;;;8.20;90.80;;;;;;5078596;28;20995;-39
2022/02/12 11:20:05;;;;;;;4.27;2.83;;;8.20;90.30;;;;;;5081292;28;20517;-39
2022/02/12 11:22:31;;;;;;;6.40;4.00;;;7.90;89.70;;;;;;5087853;28;20473;-40
2022/02/12 11:24:57;;;;;;;4.90;2.67;;;8.10;90.10;;;;;;5086414;28;20887;-40
2022/02/12 11:27:23;;;;;;;4.50;2.20;;;7.50;90.40;;;;;;5089672;28;20552;-39
2022/02/12 11:29:53;;;;;;;5.80;2.33;;;7.50;90.60;;;;;;5089069;28;20426;-39
2022/02/12 11:32:26;;;;;;;6.10;2.70;;;7.40;90.70;;;;;;5080148;28;20442;-40
2022/02/12 11:34:55;;;;;;;5.97;2.77;;;7.50;91.30;;;;;;5084291;28;20419;-40
2022/02/12 11:37:22;;;;;;;6.80;2.53;;;7.80;91.10;;;;;;5089740;28;20528;-39
2022/02/12 11:40:17;;;;;;;5.43;2.07;;;7.80;91.20;;;;;;5089209;28;20426;-39
2022/02/12 11:42:44;;;;;;;6.67;2.50;;;7.90;90.40;;;;;;5089139;28;20410;-41
2022/02/12 11:45:21;;;;;;;5.10;1.93;;;7.70;90.00;;;;;;5090088;28;20422;-39
2022/02/12 11:48:14;;;;;;;3.90;2.50;;;7.60;89.10;;;;;;5076628;28;20418;-40
2022/02/12 11:50:45;;;;;;;3.87;2.23;;;7.50;89.90;;;;;;5081466;28;20426;-39
2022/02/12 11:53:32;;;;;;;3.60;2.17;;;7.60;90.00;;;;;;5082528;28;20439;-39
2022/02/12 11:55:58;;;;;;;5.00;2.50;;;7.70;90.00;;;;;;5086642;28;20780;-41
2022/02/12 11:58:42;;;;;;;5.80;3.13;;;8.00;90.40;;;;;;5078677;28;20498;-42
2022/02/12 12:01:24;;;;;;;4.50;2.23;;;8.10;88.20;;;;;;5081139;28;20462;-40
2022/02/12 12:04:12;;;;;;;5.37;2.27;;;8.50;88.10;;;;;;5086542;28;21022;-40
2022/02/12 12:06:39;;;;;;;4.97;2.20;;;8.90;85.00;;;;;;5088252;28;20438;-39
2022/02/12 12:09:05;;;;;;;3.43;1.70;;;9.20;85.80;;;;;;5089125;28;20468;-40
2022/02/12 12:11:31;;;;;;;6.30;2.53;;;9.40;83.50;;;;;;5088431;28;20922;-40
2022/02/12 12:13:59;;;;;;;8.23;2.40;;;9.90;82.20;;;;;;5087211;28;20177;-43
2022/02/12 12:16:34;;;;;;;4.80;2.23;;;9.80;81.00;;;;;;5081590;28;20201;-40
2022/02/12 12:19:01;;;;;;;6.13;2.60;;;10.20;79.00;;;;;;5087133;28;20459;-40
2022/02/12 12:21:29;;;;;;;7.43;2.40;;;10.00;77.40;;;;;;5086954;28;20898;-40
2022/02/12 12:23:57;;;;;;;5.17;3.03;;;9.50;77.50;;;;;;5088628;28;20430;-40
2022/02/12 12:26:37;;;;;;;2.40;1.80;;;9.70;79.60;;;;;;5088220;28;20811;-40
2022/02/12 12:32:09;;;;;;;5.30;2.60;;;9.70;80.20;;;;;;5080096;28;20509;-40
2022/02/12 12:34:37;;;;;;;4.57;2.43;;;9.60;78.80;;;;;;5086465;28;20428;-40
2022/02/12 12:37:06;;;;;;;3.77;2.47;;;9.70;80.50;;;;;;5088342;28;20537;-40
2022/02/12 12:39:35;;;;;;;5.63;2.57;;;9.60;80.70;;;;;;5088522;28;20418;-41
2022/02/12 12:42:02;;;;;;;3.00;2.10;;;9.50;80.10;;;;;;5088112;28;20495;-40
2022/02/12 12:44:27;;;;;;;4.20;2.13;;;9.80;80.90;;;;;;5088372;28;20418;-43
2022/02/12 12:46:56;;;;;;;5.00;2.23;;;9.60;80.80;;;;;;5079493;28;20489;-41
2022/02/12 12:49:30;;;;;;;3.00;2.20;;;9.80;81.80;;;;;;5084931;28;20674;-41
2022/02/12 12:51:57;;;;;;;3.73;2.10;;;9.80;82.10;;;;;;5087369;28;20424;-39
2022/02/12 12:54:44;;;;;;;4.60;2.73;;;9.90;82.30;;;;;;5088150;28;20422;-40
2022/02/12 12:57:12;;;;;;;5.60;2.20;;;9.90;80.40;;;;;;5087963;28;20522;-39
2022/02/12 12:59:51;;;;;;;4.70;2.20;;;9.50;81.30;;;;;;5087448;28;20433;-40
2022/02/12 13:02:18;;;;;;;6.67;2.80;;;9.60;80.60;;;;;;5078543;28;20431;-40
2022/02/12 13:04:50;;;;;;;3.10;2.80;;;9.20;80.80;;;;;;5088071;28;20835;-39